Avoca, Michigan
Current Conditions -  °F | °C
As of 9:37 PM on Thursday 27 Nov 2014 (Local Time) from KPHN Reporting Station
Overcast Overcast  
Wind Chill: 17°   Ceiling: 4500
Heat Index: 25°   Visibility: 10mi
Dew Point: 16°   Wind: 7mph
Humidity: 69%   Direction: 320°NW
Pressure: 30.25"   Gusts: 16mph
Location:  43.06°N, 82.69°W
Report Text: KPHN 280237Z AUTO 32006G14KT 10SM SCT039 BKN045 OVC050 M04/M09 A3025 RMK AO2
Loading
Personal Weather Stations






























Interactive Weather Map New forecast layout! Learn more

10-Day Weather Forecast

Advertisements
Track Severe Weather on mobile